Ely Municipal Airport


Codes: KELO/
Name: Ely Municipal Airport
City: Ely
Country: United States
Elevation: 1456 ft.

Photos at Ely Municipal Airport


   Photos courtesy of SpottingLog. You can add your own sightings and photos by signing up for a free trial today.



No photos found.

Weather at Ely Municipal Airport


Time (UTC)DescriptionTempratureWindCloud coverageVisibilityPressureHumidity
13-Jun-2024 00:00Broken Clouds22°C4 mph, W75%10000m1001hPa60%
13-Jun-2024 03:00Light Rain20°C2 mph, W82%10000m1001hPa70%
13-Jun-2024 06:00Light Rain17°C2 mph, SW58%10000m1002hPa84%
13-Jun-2024 09:00Clear Sky13°C4 mph, W0%10000m1002hPa98%
13-Jun-2024 12:00Clear Sky14°C9 mph, W4%10000m1003hPa94%
13-Jun-2024 15:00Light Rain19°C13 mph, W0%10000m1005hPa60%
13-Jun-2024 18:00Light Rain17°C13 mph, NW15%10000m1007hPa67%
13-Jun-2024 21:00Light Rain17°C11 mph, NW81%10000m1009hPa73%
14-Jun-2024 00:00Light Rain17°C7 mph, NW76%10000m1011hPa65%
14-Jun-2024 03:00Few Clouds12°C4 mph, NW23%10000m1013hPa80%
14-Jun-2024 06:00Scattered Clouds10°C2 mph, NW36%10000m1015hPa89%
14-Jun-2024 09:00Clear Sky8°C2 mph, NW0%10000m1017hPa94%
14-Jun-2024 12:00Clear Sky12°C2 mph, E0%10000m1018hPa82%
14-Jun-2024 15:00Clear Sky20°C2 mph, SE0%10000m1018hPa50%
14-Jun-2024 18:00Clear Sky23°C4 mph, W0%10000m1017hPa38%
14-Jun-2024 21:00Broken Clouds19°C7 mph, S80%10000m1016hPa58%
15-Jun-2024 00:00Overcast Clouds19°C7 mph, S92%10000m1016hPa62%
15-Jun-2024 03:00Broken Clouds15°C7 mph, S77%10000m1017hPa59%
15-Jun-2024 06:00Broken Clouds10°C4 mph, S65%10000m1018hPa64%
15-Jun-2024 09:00Scattered Clouds12°C7 mph, S48%10000m1016hPa51%
15-Jun-2024 12:00Scattered Clouds14°C7 mph, S35%10000m1016hPa66%
15-Jun-2024 15:00Broken Clouds19°C11 mph, S67%10000m1014hPa69%
15-Jun-2024 18:00Broken Clouds18°C7 mph, S83%10000m1013hPa77%
15-Jun-2024 21:00Overcast Clouds18°C11 mph, S100%10000m1011hPa79%
16-Jun-2024 00:00Overcast Clouds19°C11 mph, S100%10000m1009hPa77%
16-Jun-2024 03:00Light Rain15°C11 mph, SE100%10000m1008hPa90%
16-Jun-2024 06:00Overcast Clouds15°C9 mph, SE100%10000m1006hPa95%
16-Jun-2024 09:00Light Rain14°C7 mph, SE100%4759m1003hPa98%
16-Jun-2024 12:00Overcast Clouds14°C7 mph, SE100%344m1002hPa98%
16-Jun-2024 15:00Overcast Clouds16°C7 mph, N100%0m1001hPa96%
16-Jun-2024 18:00Overcast Clouds23°C11 mph, SW100%10000m999hPa71%
16-Jun-2024 21:00Light Rain22°C11 mph, SW79%10000m1000hPa83%
17-Jun-2024 00:00Light Rain20°C7 mph, SW91%10000m1002hPa85%
17-Jun-2024 03:00Clear Sky17°C9 mph, W6%10000m1005hPa51%
17-Jun-2024 06:00Clear Sky14°C9 mph, SW3%10000m1006hPa59%
17-Jun-2024 09:00Few Clouds10°C7 mph, SW14%10000m1007hPa78%
17-Jun-2024 12:00Scattered Clouds13°C7 mph, W43%10000m1009hPa66%
17-Jun-2024 15:00Overcast Clouds15°C4 mph, W100%10000m1009hPa66%
17-Jun-2024 18:00Overcast Clouds19°C4 mph, SW100%10000m1011hPa53%
17-Jun-2024 21:00Overcast Clouds19°C2 mph, W100%10000m1010hPa54%